Weather History for Elizabethtown, NC

Change the Weather History Date:

Monday, February 11, 2013

  Actual Average (KILM) Record (KILM)
Temperature  
Mean Temperature 57 °F 48 °F  
Max Temperature 66 °F 59 °F 78 °F (1939)
Min Temperature 48 °F 37 °F 18 °F (1912)
Degree Days  
Heating Degree Days 8 17  
Month to date heating degree days 192  
Since 1 July heating degree days 1667  
Cooling Degree Days 0 0  
Month to date cooling degree days 0  
Year to date cooling degree days 2  
Growing Degree Days 7 (Base 50)    
Moisture  
Dew Point 59 °F    
Average Humidity 93    
Maximum Humidity 97    
Minimum Humidity 84    
Precipitation  
Precipitation 0.19 in 0.12 in 2.58 in (1910)
Month to date precipitation 1.39  
Year to date precipitation 5.15  
Snow  
Snow 0.00 in 0.00 in 9.40 in (1912)
Month to date snowfall 0.1  
Since 1 July snowfall 1.3  
Snow Depth -    
Sea Level Pressure  
Sea Level Pressure 30.08 in    
Wind  
Wind Speed 9 mph (SSW)    
Max Wind Speed 16 mph    
Max Gust Speed 24 mph    
Visibility 10 miles    
Events Rain    
T = Trace of Precipitation, MM = Missing Value Source: NWS Daily Summary

Daily Weather History Graph

Daily Weather History Graph

Search for Another Location

Airport:

Trip Planner

Search our weather history database for the weather conditions in past years. The results will help you decide how hot, cold, wet, or windy it might be!

Date:

Astronomy

Feb. 11, 2013 Rise Set
Actual Time 7:03 AM EST 5:53 PM EST
Civil Twilight 6:37 AM EST 6:19 PM EST
Nautical Twilight 6:07 AM EST 6:49 PM EST
Astronomical Twilight 5:38 AM EST 7:18 PM EST
Moon 7:32 AM EST (2/11) 7:41 PM EST (2/11)
Length of Visible Light 11h 42m
Length of Day
10h 50m
Waxing Crescent, 3% of the Moon is Illuminated
Feb 11
Waxing Crescent
Feb 17
First Quarter
Feb 25
Full
Mar 4
Last Quarter
Mar 11
New

Hourly Weather History & Observations

Time (EST) Temp. Dew Point Humidity Pressure Visibility Wind Dir Wind Speed Gust Speed Precip Events Conditions
12:15 AM 49.1 °F 46.6 °F 91% 30.30 in 10.0 mi East 3.5 mph - N/A Rain Light Rain
12:35 AM 48.6 °F 47.3 °F 95% 30.26 in 10.0 mi SE 9.2 mph - 0.01 in Rain Rain
12:55 AM 49.5 °F 48.2 °F 95% 30.23 in 10.0 mi SE 8.1 mph - 0.01 in Rain Light Rain
1:15 AM 51.3 °F 50.2 °F 96% 30.22 in 10.0 mi SSE 9.2 mph - 0.01 in Rain Light Rain
1:35 AM 53.1 °F 51.1 °F 93% 30.21 in 10.0 mi SSE 10.4 mph - 0.02 in Rain Rain
1:55 AM 54.3 °F 52.0 °F 92% 30.19 in 10.0 mi SSE 11.5 mph 19.6 mph 0.03 in Rain Light Rain
2:15 AM 54.7 °F 52.7 °F 93% 30.19 in 10.0 mi South 12.7 mph 19.6 mph N/A Rain Light Rain
2:35 AM 55.0 °F 53.2 °F 94% 30.18 in 10.0 mi South 9.2 mph - 0.01 in Rain Light Rain
2:55 AM 55.6 °F 53.8 °F 94% 30.18 in 10.0 mi South 9.2 mph 17.3 mph 0.02 in Rain Light Rain
3:15 AM 55.6 °F 54.0 °F 94% 30.17 in 10.0 mi South 10.4 mph 16.1 mph 0.02 in Rain Rain
3:35 AM 55.6 °F 54.3 °F 96% 30.15 in 10.0 mi South 9.2 mph - 0.03 in Rain Light Rain
3:55 AM 55.8 °F 54.9 °F 97% 30.14 in 10.0 mi South 11.5 mph 16.1 mph 0.04 in Rain Light Rain
4:15 AM 56.8 °F 55.9 °F 97% 30.14 in 10.0 mi South 11.5 mph - N/A Rain Rain
4:35 AM 57.4 °F 55.9 °F 95% 30.13 in 10.0 mi South 10.4 mph - N/A   Drizzle
4:55 AM 57.4 °F 56.5 °F 97% 30.12 in 10.0 mi South 10.4 mph 16.1 mph N/A   Drizzle
5:15 AM 57.6 °F 56.7 °F 97% 30.12 in 10.0 mi South 9.2 mph 17.3 mph N/A   Drizzle
5:35 AM 57.7 °F 56.8 °F 97% 30.12 in 10.0 mi South 10.4 mph 16.1 mph 0.01 in   Overcast
5:55 AM 58.1 °F 56.3 °F 94% 30.11 in 10.0 mi South 9.2 mph - 0.01 in   Mostly Cloudy
6:15 AM 58.3 °F 56.3 °F 93% 30.12 in 10.0 mi South 8.1 mph - N/A Rain Light Rain
6:35 AM 59.0 °F 56.7 °F 92% 30.13 in 10.0 mi South 8.1 mph 17.3 mph N/A Rain Rain
6:55 AM 59.2 °F 57.2 °F 93% 30.14 in 10.0 mi South 10.4 mph - N/A   Drizzle
7:15 AM 59.2 °F 57.4 °F 94% 30.14 in 10.0 mi South 11.5 mph 16.1 mph N/A Rain Light Rain
7:35 AM 59.4 °F 58.1 °F 96% 30.14 in 7.0 mi South 8.1 mph - N/A   Drizzle
7:55 AM 59.9 °F 59.0 °F 97% 30.13 in 7.0 mi South 10.4 mph 16.1 mph 0.01 in Rain Rain
8:15 AM 60.1 °F 59.2 °F 97% 30.12 in 5.0 mi South 9.2 mph 17.3 mph N/A Rain Rain
8:35 AM 60.3 °F 59.4 °F 97% 30.13 in 7.0 mi South 11.5 mph - N/A   Drizzle
8:55 AM 60.8 °F 59.9 °F 97% 30.13 in 7.0 mi South 9.2 mph - 0.01 in Rain Rain
9:15 AM 61.0 °F 60.1 °F 97% 30.13 in 5.0 mi South 10.4 mph - 0.02 in Rain Rain
9:35 AM 61.0 °F 60.1 °F 97% 30.12 in 7.0 mi South 11.5 mph 18.4 mph 0.02 in Rain Light Rain
9:55 AM 61.2 °F 60.3 °F 97% 30.11 in 7.0 mi SSW 13.8 mph 17.3 mph 0.04 in Rain Light Rain
10:15 AM 61.5 °F 60.8 °F 97% 30.11 in 7.0 mi SSW 11.5 mph 17.3 mph 0.01 in Rain Light Rain
10:35 AM 62.4 °F 61.5 °F 97% 30.11 in 10.0 mi SSW 11.5 mph 17.3 mph 0.01 in Rain Rain
10:55 AM 62.8 °F 61.9 °F 97% 30.11 in 10.0 mi SSW 11.5 mph 17.3 mph 0.01 in   Drizzle
11:15 AM 62.8 °F 61.7 °F 96% 30.11 in 10.0 mi SSW 11.5 mph - N/A   Light Drizzle
11:35 AM 63.0 °F 61.7 °F 96% 30.10 in 10.0 mi SSW 9.2 mph 17.3 mph N/A   Overcast
11:55 AM 63.5 °F 61.7 °F 94% 30.08 in 10.0 mi SSW 11.5 mph 19.6 mph N/A Rain Light Rain
12:15 PM 63.5 °F 61.7 °F 94% 30.06 in 10.0 mi South 11.5 mph - N/A Rain Light Rain
12:35 PM 63.5 °F 61.7 °F 94% 30.02 in 10.0 mi South 13.8 mph 20.7 mph N/A Rain Rain
12:55 PM 63.5 °F 61.7 °F 94% 30.01 in 10.0 mi South 16.1 mph 23.0 mph N/A Rain Light Rain
1:15 PM 64.4 °F 61.9 °F 92% 30.03 in 10.0 mi SW 16.1 mph 24.2 mph N/A   Light Drizzle
1:35 PM 64.4 °F 61.7 °F 91% 30.05 in 10.0 mi SW 15.0 mph 21.9 mph N/A   Overcast
1:55 PM 64.6 °F 61.3 °F 89% 30.05 in 10.0 mi SW 15.0 mph 24.2 mph N/A   Overcast
2:15 PM 64.8 °F 61.2 °F 88% 30.04 in 10.0 mi SW 10.4 mph 19.6 mph N/A   Overcast
2:35 PM 64.9 °F 61.2 °F 88% 30.03 in 10.0 mi SW 9.2 mph 21.9 mph N/A   Overcast
2:55 PM 65.3 °F 61.3 °F 87% 30.03 in 10.0 mi SW 9.2 mph 17.3 mph N/A   Overcast
3:15 PM 66.2 °F 61.9 °F 86% 30.03 in 10.0 mi SW 9.2 mph 18.4 mph N/A   Overcast
3:35 PM 66.2 °F 61.7 °F 85% 30.02 in 10.0 mi SW 9.2 mph 19.6 mph N/A   Overcast
3:55 PM 66.2 °F 61.7 °F 85% 30.01 in 10.0 mi SW 10.4 mph - N/A   Mostly Cloudy
4:15 PM 66.2 °F 61.2 °F 84% 30.01 in 10.0 mi SW 9.2 mph 19.6 mph N/A   Scattered Clouds
4:35 PM 66.2 °F 61.3 °F 84% 30.00 in 10.0 mi SW 6.9 mph - N/A   Scattered Clouds
4:55 PM 66.2 °F 61.3 °F 84% 30.00 in 10.0 mi SW 10.4 mph - N/A   Scattered Clouds
5:55 PM 64.6 °F 61.0 °F 88% 30.01 in 10.0 mi SSW 10.4 mph - N/A Rain Light Rain
6:15 PM 64.4 °F 61.0 °F 89% 30.01 in 10.0 mi SW 8.1 mph - N/A   Overcast
6:35 PM 64.2 °F 61.5 °F 91% 30.01 in 10.0 mi SW 6.9 mph - N/A   Drizzle
6:55 PM 63.5 °F 61.3 °F 93% 30.02 in 10.0 mi SW 6.9 mph - N/A   Drizzle
7:15 PM 63.5 °F 61.7 °F 94% 30.02 in 10.0 mi SW 8.1 mph - 0.01 in Rain Light Rain
7:35 PM 63.0 °F 61.7 °F 96% 30.01 in 10.0 mi SSW 10.4 mph - 0.01 in Rain Rain
7:55 PM 62.8 °F 61.9 °F 97% 29.99 in 10.0 mi SSW 10.4 mph - 0.01 in   Light Drizzle
8:15 PM 62.8 °F 61.3 °F 95% 29.98 in 10.0 mi SSW 11.5 mph 16.1 mph N/A   Scattered Clouds
8:35 PM 62.8 °F 61.2 °F 94% 29.97 in 10.0 mi SSW 8.1 mph - N/A   Scattered Clouds
8:55 PM 62.8 °F 61.3 °F 95% 29.99 in 10.0 mi SSW 12.7 mph 16.1 mph N/A   Mostly Cloudy
9:15 PM 62.8 °F 61.2 °F 94% 30.01 in 10.0 mi WSW 9.2 mph - N/A   Overcast
9:35 PM 62.8 °F 61.0 °F 94% 30.01 in 10.0 mi West 11.5 mph - N/A   Overcast
9:55 PM 62.8 °F 60.3 °F 91% 30.01 in 10.0 mi WSW 10.4 mph 20.7 mph N/A   Overcast
10:15 PM 62.8 °F 59.5 °F 89% 30.01 in 10.0 mi WSW 8.1 mph 16.1 mph N/A   Mostly Cloudy
10:35 PM 62.6 °F 59.4 °F 89% 30.01 in 10.0 mi WSW 10.4 mph 17.3 mph N/A   Overcast
10:55 PM 61.9 °F 58.6 °F 89% 30.00 in 10.0 mi SW 9.2 mph - N/A   Overcast
11:15 PM 61.7 °F 58.3 °F 89% 30.00 in 10.0 mi WSW 6.9 mph - N/A   Mostly Cloudy
11:35 PM 61.0 °F 58.1 °F 90% 29.99 in 10.0 mi SW 10.4 mph - N/A   Scattered Clouds
11:55 PM 61.0 °F 57.9 °F 90% 29.99 in 10.0 mi SW 9.2 mph - N/A   Clear